Time;durP1;ratioP1;P1;durP2;ratioP2;P2;SDS_P1;SDS_P2;PMS_P1;PMS_P2;Temp;Humidity;BMP_temperature;BMP_pressure;BME280_temperature;BME280_humidity;BME280_pressure;Samples;Min_cycle;Max_cycle;Signal;HPM_P1;HPM_P2
2022/09/25 00:01:10;;;;;;;10.67;9.97;;;12.90;1.00;;;;;;6270242;28;20234;-54
2022/09/25 00:04:13;;;;;;;9.63;9.03;;;12.90;1.00;;;;;;6292287;28;20464;-52
2022/09/25 00:07:17;;;;;;;9.53;8.83;;;12.90;1.00;;;;;;6290415;28;20241;-54
2022/09/25 00:10:20;;;;;;;10.70;9.77;;;13.00;1.00;;;;;;6282132;28;20834;-54
2022/09/25 00:13:24;;;;;;;10.67;9.60;;;12.90;1.00;;;;;;6284254;28;20395;-58
2022/09/25 00:16:29;;;;;;;8.93;8.33;;;13.00;1.00;;;;;;6272910;28;20260;-53
2022/09/25 00:19:50;;;;;;;7.20;6.80;;;13.00;1.00;;;;;;6239778;28;20304;-54
2022/09/25 00:22:55;;;;;;;7.77;7.27;;;13.00;1.00;;;;;;6282923;28;20268;-54
2022/09/25 00:25:58;;;;;;;9.07;8.57;;;13.00;1.00;;;;;;6265037;28;20390;-55
2022/09/25 00:29:02;;;;;;;7.90;7.40;;;12.90;1.00;;;;;;6281806;28;20244;-54
2022/09/25 00:32:05;;;;;;;8.23;7.73;;;12.90;1.00;;;;;;6282772;28;20264;-55
2022/09/25 00:35:09;;;;;;;6.87;6.47;;;12.90;1.00;;;;;;6290512;28;20384;-54
2022/09/25 00:38:13;;;;;;;9.50;8.80;;;12.90;1.00;;;;;;6308317;28;20244;-57
2022/09/25 00:41:18;;;;;;;7.63;7.27;;;12.90;1.00;;;;;;6273447;28;20625;-54
2022/09/25 00:44:56;;;;;;;8.37;7.87;;;12.90;1.00;;;;;;6258528;28;20230;-54
2022/09/25 00:48:02;;;;;;;8.23;7.73;;;12.90;1.00;;;;;;6258172;28;20266;-54
2022/09/25 00:51:05;;;;;;;9.43;8.87;;;12.80;1.00;;;;;;6278076;28;20297;-54
2022/09/25 00:54:14;;;;;;;7.90;7.40;;;12.80;1.00;;;;;;6257714;28;20230;-54
2022/09/25 00:57:20;;;;;;;9.87;9.23;;;12.80;1.00;;;;;;6257755;28;20339;-54
2022/09/25 01:00:23;;;;;;;9.03;8.53;;;12.80;1.00;;;;;;6257257;28;20230;-53
2022/09/25 01:03:27;;;;;;;9.37;8.73;;;12.80;1.00;;;;;;6273960;28;20238;-54
2022/09/25 01:06:31;;;;;;;8.00;7.50;;;12.80;1.00;;;;;;6286108;28;20237;-54
2022/09/25 01:09:36;;;;;;;9.97;9.37;;;12.80;1.00;;;;;;6262696;28;20254;-55
2022/09/25 01:12:42;;;;;;;9.03;8.43;;;12.80;1.00;;;;;;6230665;28;20234;-54
2022/09/25 01:15:53;;;;;;;9.20;8.53;;;12.80;1.00;;;;;;6258221;28;20256;-55
2022/09/25 01:19:05;;;;;;;9.23;8.73;;;12.80;1.00;;;;;;6260630;28;20738;-53
2022/09/25 01:22:15;;;;;;;8.53;7.93;;;12.80;1.00;;;;;;6273657;28;20240;-54
2022/09/25 01:25:34;;;;;;;8.90;8.40;;;12.80;1.00;;;;;;6282477;28;20444;-54
2022/09/25 01:28:49;;;;;;;8.83;8.33;;;12.80;1.00;;;;;;6281119;28;20761;-55
2022/09/25 01:32:02;;;;;;;8.13;7.70;;;12.80;1.00;;;;;;6281864;28;20233;-55
2022/09/25 01:35:09;;;;;;;9.30;8.70;;;12.90;1.00;;;;;;6287706;28;20399;-54
2022/09/25 01:38:23;;;;;;;8.43;7.83;;;12.90;1.00;;;;;;6257510;28;20262;-54
2022/09/25 01:41:33;;;;;;;9.27;8.77;;;12.90;1.00;;;;;;6257231;28;20682;-53
2022/09/25 01:44:43;;;;;;;9.23;8.73;;;12.90;1.00;;;;;;6257726;28;20230;-55
2022/09/25 01:47:50;;;;;;;8.43;7.97;;;12.90;1.00;;;;;;6257794;28;20248;-54
2022/09/25 01:50:58;;;;;;;8.37;7.80;;;12.90;1.00;;;;;;6273872;28;20373;-55
2022/09/25 01:54:06;;;;;;;8.90;8.40;;;12.90;1.00;;;;;;6283068;28;20226;-54
2022/09/25 01:57:15;;;;;;;7.83;7.33;;;12.90;1.00;;;;;;6278477;28;20234;-55
2022/09/25 02:00:21;;;;;;;9.80;9.00;;;12.90;1.00;;;;;;6286650;28;20230;-54
2022/09/25 02:03:31;;;;;;;8.67;8.23;;;12.90;1.00;;;;;;6287504;28;20233;-61
2022/09/25 02:06:37;;;;;;;9.20;8.50;;;12.90;1.00;;;;;;6303498;28;20240;-54
2022/09/25 02:09:44;;;;;;;8.07;7.57;;;12.90;1.00;;;;;;6305828;28;20657;-54
2022/09/25 02:12:51;;;;;;;7.93;7.43;;;12.90;1.00;;;;;;6261991;28;20281;-54
2022/09/25 02:15:58;;;;;;;8.23;7.70;;;12.90;1.00;;;;;;6261703;28;20234;-54
2022/09/25 02:22:24;;;;;;;6.70;6.40;;;12.90;1.00;;;;;;6281453;28;20241;-54
2022/09/25 02:25:36;;;;;;;7.77;7.37;;;12.90;1.00;;;;;;6285121;28;20771;-54
2022/09/25 02:28:39;;;;;;;8.03;7.63;;;12.80;1.00;;;;;;6277828;28;20726;-55
2022/09/25 02:31:48;;;;;;;7.80;7.37;;;12.80;1.00;;;;;;6262008;28;20252;-53
2022/09/25 02:34:52;;;;;;;9.37;8.80;;;12.80;1.00;;;;;;6290749;28;20233;-54
2022/09/25 02:37:56;;;;;;;8.90;8.20;;;12.80;1.00;;;;;;6291769;28;20739;-54
2022/09/25 02:41:06;;;;;;;8.93;8.13;;;12.90;1.00;;;;;;6295641;28;20249;-55
2022/09/25 02:44:17;;;;;;;8.00;7.50;;;12.90;1.00;;;;;;6272238;28;20627;-54
2022/09/25 02:47:31;;;;;;;7.83;7.43;;;12.80;1.00;;;;;;6286236;28;20581;-54
2022/09/25 02:50:42;;;;;;;7.63;7.23;;;12.80;1.00;;;;;;6288322;28;20912;-54
2022/09/25 02:53:52;;;;;;;8.30;7.80;;;12.80;1.00;;;;;;6269760;28;20234;-55
2022/09/25 02:57:01;;;;;;;8.00;7.47;;;12.70;1.00;;;;;;6261559;28;20389;-55
2022/09/25 03:00:08;;;;;;;8.97;8.47;;;12.80;1.00;;;;;;6262037;28;20380;-56
2022/09/25 03:03:16;;;;;;;9.33;8.73;;;12.70;1.00;;;;;;6283103;28;20233;-53
2022/09/25 03:06:20;;;;;;;9.17;8.00;;;12.70;1.00;;;;;;6285326;28;20240;-54
2022/09/25 03:09:24;;;;;;;8.40;7.80;;;12.70;1.00;;;;;;6310389;28;20236;-61
2022/09/25 03:12:27;;;;;;;9.33;8.70;;;12.70;1.00;;;;;;6311151;28;20616;-53
2022/09/25 03:15:30;;;;;;;7.83;7.33;;;12.70;1.00;;;;;;6261247;28;20233;-55
2022/09/25 03:18:34;;;;;;;8.70;8.13;;;12.70;1.00;;;;;;6271888;28;20229;-55
2022/09/25 03:21:37;;;;;;;6.80;6.50;;;12.70;1.00;;;;;;6282410;28;20240;-53
2022/09/25 03:24:40;;;;;;;7.23;6.77;;;12.70;1.00;;;;;;6290926;28;20617;-53
2022/09/25 03:27:43;;;;;;;6.67;6.37;;;12.60;1.00;;;;;;6284989;28;20240;-53
2022/09/25 03:31:11;;;;;;;6.80;6.50;;;12.70;1.00;;;;;;6280776;28;20241;-52
2022/09/25 03:34:39;;;;;;;8.40;7.90;;;12.60;1.00;;;;;;6277571;28;20248;-55
2022/09/25 03:37:42;;;;;;;8.30;7.90;;;12.60;1.00;;;;;;6277569;28;20233;-53
2022/09/25 03:40:45;;;;;;;8.87;8.37;;;12.50;1.00;;;;;;6290766;28;20674;-55
2022/09/25 03:43:50;;;;;;;9.43;8.73;;;12.60;1.00;;;;;;6290153;28;20244;-53
2022/09/25 03:46:53;;;;;;;9.43;8.83;;;12.50;1.00;;;;;;6291321;28;20229;-55
2022/09/25 03:49:57;;;;;;;8.93;8.43;;;12.50;1.00;;;;;;6285397;28;20225;-53
2022/09/25 03:53:00;;;;;;;10.83;10.03;;;12.50;1.00;;;;;;6283494;28;20233;-54
2022/09/25 03:56:06;;;;;;;9.97;9.27;;;12.50;1.00;;;;;;6293333;28;20379;-55
2022/09/25 03:59:09;;;;;;;11.27;10.10;;;12.50;1.00;;;;;;6283786;28;20804;-55
2022/09/25 04:02:12;;;;;;;9.40;8.70;;;12.40;1.00;;;;;;6284344;28;20233;-54
2022/09/25 04:05:18;;;;;;;9.97;9.33;;;12.50;1.00;;;;;;6283960;28;20267;-53
2022/09/25 04:08:21;;;;;;;9.43;8.93;;;12.50;1.00;;;;;;6289618;28;20238;-54
2022/09/25 04:11:24;;;;;;;9.10;8.60;;;12.40;1.00;;;;;;6282790;28;20312;-53
2022/09/25 04:14:27;;;;;;;9.40;8.60;;;12.40;1.00;;;;;;6287415;28;20232;-53
2022/09/25 04:17:30;;;;;;;10.47;9.67;;;12.40;1.00;;;;;;6283109;28;20234;-53
2022/09/25 04:20:36;;;;;;;11.27;10.47;;;12.40;1.00;;;;;;6285304;28;20230;-54
2022/09/25 04:23:39;;;;;;;12.33;11.40;;;12.40;1.00;;;;;;6279315;28;20233;-54
2022/09/25 04:26:42;;;;;;;10.33;9.67;;;12.40;1.00;;;;;;6284195;28;20343;-55
2022/09/25 04:29:45;;;;;;;11.30;10.30;;;12.30;1.00;;;;;;6286201;28;20251;-54
2022/09/25 04:36:10;;;;;;;11.10;10.30;;;12.30;1.00;;;;;;6283592;28;21934;-54
2022/09/25 04:39:18;;;;;;;10.90;10.20;;;12.40;1.00;;;;;;6282498;28;20476;-56
2022/09/25 04:42:23;;;;;;;9.87;9.07;;;12.30;1.00;;;;;;6289450;28;20662;-60
2022/09/25 04:45:27;;;;;;;10.87;10.07;;;12.40;1.00;;;;;;6277710;28;20401;-56
2022/09/25 04:48:30;;;;;;;12.37;11.33;;;12.30;1.00;;;;;;6287181;28;20766;-55
2022/09/25 04:51:34;;;;;;;11.57;10.63;;;12.30;1.00;;;;;;6286759;28;20244;-54
2022/09/25 04:54:37;;;;;;;12.30;11.33;;;12.30;1.00;;;;;;6288863;28;20233;-54
2022/09/25 04:57:40;;;;;;;11.77;10.83;;;12.30;1.00;;;;;;6285460;28;20245;-54
2022/09/25 05:01:02;;;;;;;11.10;10.30;;;12.30;1.00;;;;;;6284861;28;20289;-54
2022/09/25 05:04:05;;;;;;;12.57;11.70;;;12.30;1.00;;;;;;6283804;28;20617;-55
2022/09/25 05:07:12;;;;;;;12.97;11.67;;;12.30;1.00;;;;;;6287960;28;20379;-54
2022/09/25 05:10:15;;;;;;;13.27;11.97;;;12.30;1.00;;;;;;6282755;28;20242;-55
2022/09/25 05:13:18;;;;;;;11.97;11.03;;;12.30;1.00;;;;;;6281859;28;20718;-54
2022/09/25 05:16:21;;;;;;;12.87;11.73;;;12.30;1.00;;;;;;6288121;28;20232;-53
2022/09/25 05:19:24;;;;;;;12.13;11.23;;;12.30;1.00;;;;;;6296315;28;20236;-54
2022/09/25 05:22:28;;;;;;;10.30;9.60;;;12.30;1.00;;;;;;6283292;28;20240;-54
2022/09/25 05:25:31;;;;;;;10.57;9.93;;;12.30;1.00;;;;;;6280401;28;20388;-54
2022/09/25 05:28:34;;;;;;;11.13;10.43;;;12.30;1.00;;;;;;6289753;28;20225;-54
2022/09/25 05:31:37;;;;;;;13.67;12.27;;;12.30;1.00;;;;;;6298713;28;20317;-54
2022/09/25 05:34:40;;;;;;;13.77;12.73;;;12.30;1.00;;;;;;6288083;28;20233;-54
2022/09/25 05:37:44;;;;;;;13.17;11.90;;;12.20;1.00;;;;;;6292813;28;20708;-54
2022/09/25 05:40:47;;;;;;;11.33;10.53;;;12.30;1.00;;;;;;6297578;28;20705;-54
2022/09/25 05:43:50;;;;;;;12.33;11.43;;;12.30;1.00;;;;;;6291479;28;20236;-54
2022/09/25 05:46:55;;;;;;;12.97;11.67;;;12.30;1.00;;;;;;6290944;28;20388;-55
2022/09/25 05:49:58;;;;;;;12.27;11.20;;;12.30;1.00;;;;;;6289055;28;20237;-54
2022/09/25 05:53:04;;;;;;;10.80;10.00;;;12.30;1.00;;;;;;6285826;28;20237;-54
2022/09/25 05:56:07;;;;;;;11.67;10.87;;;12.30;1.00;;;;;;6289754;28;20236;-54
2022/09/25 05:59:09;;;;;;;12.83;11.63;;;12.30;1.00;;;;;;6298182;28;20228;-53
2022/09/25 06:02:12;;;;;;;13.00;11.97;;;12.30;1.00;;;;;;6293531;28;20247;-55
2022/09/25 06:05:15;;;;;;;9.87;9.23;;;12.30;1.00;;;;;;6271569;28;20247;-54
2022/09/25 06:08:20;;;;;;;10.60;9.87;;;12.30;1.00;;;;;;6284747;28;20242;-54
2022/09/25 06:11:23;;;;;;;12.23;11.23;;;12.30;1.00;;;;;;6295792;28;20244;-54
2022/09/25 06:14:26;;;;;;;14.67;12.87;;;12.30;1.00;;;;;;6286997;28;20614;-54
2022/09/25 06:17:28;;;;;;;11.13;10.37;;;12.30;1.00;;;;;;6290215;28;20831;-55
2022/09/25 06:20:31;;;;;;;13.97;12.83;;;12.30;1.00;;;;;;6292439;28;20245;-54
2022/09/25 06:23:36;;;;;;;14.20;12.87;;;12.40;1.00;;;;;;6296902;28;20252;-54
2022/09/25 06:26:39;;;;;;;13.50;12.50;;;12.50;1.00;;;;;;6297149;28;20521;-54
2022/09/25 06:29:42;;;;;;;13.37;12.23;;;12.60;1.00;;;;;;6289180;28;20396;-54
2022/09/25 06:32:45;;;;;;;13.80;12.67;;;12.70;1.00;;;;;;6285045;28;20229;-53
2022/09/25 06:35:49;;;;;;;12.80;11.70;;;12.80;1.00;;;;;;6279821;28;20621;-55
2022/09/25 06:38:55;;;;;;;12.90;11.93;;;13.00;1.00;;;;;;6291444;28;20240;-55
2022/09/25 06:41:58;;;;;;;13.10;12.10;;;13.10;1.00;;;;;;6281696;28;20632;-55
2022/09/25 06:45:01;;;;;;;11.93;10.90;;;13.20;1.00;;;;;;6290962;28;20233;-55
2022/09/25 06:48:06;;;;;;;12.53;11.43;;;13.40;1.00;;;;;;6288116;28;20233;-53
2022/09/25 06:51:08;;;;;;;13.63;11.87;;;13.50;1.00;;;;;;6282011;28;20238;-55
2022/09/25 06:54:13;;;;;;;13.17;12.17;;;13.50;1.00;;;;;;6286680;28;20241;-54
2022/09/25 06:57:16;;;;;;;13.40;12.30;;;13.60;1.00;;;;;;6295112;28;20244;-55
2022/09/25 07:00:19;;;;;;;12.67;11.67;;;13.60;1.00;;;;;;6290292;28;20233;-55
2022/09/25 07:06:43;;;;;;;13.80;12.50;;;13.70;1.00;;;;;;6286460;28;20423;-54
2022/09/25 07:09:48;;;;;;;13.87;12.67;;;13.80;1.00;;;;;;6287409;28;20224;-54
2022/09/25 07:12:51;;;;;;;13.10;12.00;;;13.90;1.00;;;;;;6284608;28;20229;-54
2022/09/25 07:15:55;;;;;;;13.50;12.40;;;14.00;1.00;;;;;;6286826;28;20233;-53
2022/09/25 07:18:59;;;;;;;12.73;11.77;;;14.00;1.00;;;;;;6280271;28;20599;-53
2022/09/25 07:22:03;;;;;;;14.17;12.77;;;14.10;1.00;;;;;;6279350;28;20599;-53
2022/09/25 07:25:09;;;;;;;13.57;12.57;;;14.10;1.00;;;;;;6281372;28;20237;-55
2022/09/25 07:28:13;;;;;;;14.30;13.10;;;14.20;1.00;;;;;;6289774;28;20232;-54
2022/09/25 07:31:18;;;;;;;14.10;12.97;;;14.20;1.00;;;;;;6280307;28;20251;-55
2022/09/25 07:34:21;;;;;;;15.03;13.53;;;14.30;1.00;;;;;;6286146;28;20228;-54
2022/09/25 07:37:24;;;;;;;13.80;12.63;;;14.20;1.00;;;;;;6284933;28;20240;-54
2022/09/25 07:40:30;;;;;;;14.00;12.70;;;14.30;1.00;;;;;;6276825;28;20245;-54
2022/09/25 07:43:33;;;;;;;14.33;13.03;;;14.40;1.00;;;;;;6282363;28;20244;-54
2022/09/25 07:46:41;;;;;;;15.00;13.53;;;14.60;1.00;;;;;;6290786;28;20237;-53
2022/09/25 07:49:44;;;;;;;14.47;13.27;;;14.80;1.00;;;;;;6280098;28;20778;-54
2022/09/25 07:52:47;;;;;;;11.97;11.10;;;14.90;1.00;;;;;;6280353;28;20241;-52
2022/09/25 07:55:51;;;;;;;13.33;12.33;;;15.00;1.00;;;;;;6287328;28;20237;-54
2022/09/25 07:58:54;;;;;;;14.00;12.63;;;15.10;1.00;;;;;;6286495;28;20305;-55
2022/09/25 08:01:57;;;;;;;14.40;13.30;;;15.20;1.00;;;;;;6286564;28;20759;-54
2022/09/25 08:05:01;;;;;;;14.17;12.70;;;15.30;1.00;;;;;;6287782;28;20493;-52
2022/09/25 08:08:04;;;;;;;13.07;12.00;;;15.40;1.00;;;;;;6288679;28;20245;-54
2022/09/25 08:11:10;;;;;;;14.43;13.30;;;15.50;1.00;;;;;;6281907;28;20527;-54
2022/09/25 08:14:14;;;;;;;14.33;13.03;;;15.60;1.00;;;;;;6290877;28;20237;-54
2022/09/25 08:17:17;;;;;;;13.10;12.00;;;15.80;1.00;;;;;;6261076;28;20314;-54
2022/09/25 08:20:20;;;;;;;14.20;13.00;;;15.90;1.00;;;;;;6291390;28;20232;-54
2022/09/25 08:23:23;;;;;;;15.07;12.63;;;15.90;1.00;;;;;;6277417;28;20233;-54
2022/09/25 08:26:27;;;;;;;13.33;12.33;;;16.10;1.00;;;;;;6288764;28;20240;-55
2022/09/25 08:29:31;;;;;;;12.03;11.07;;;16.10;1.00;;;;;;6293032;28;20230;-54
2022/09/25 08:32:35;;;;;;;14.00;12.60;;;16.20;1.00;;;;;;6289827;28;20357;-56
2022/09/25 08:35:39;;;;;;;12.80;11.73;;;16.10;1.00;;;;;;6286345;28;20243;-55
2022/09/25 08:38:42;;;;;;;13.90;12.57;;;16.00;1.00;;;;;;6290690;28;20260;-55
2022/09/25 08:41:50;;;;;;;13.70;12.43;;;16.00;1.00;;;;;;6283942;28;20233;-55
2022/09/25 08:51:50;;;;;;;13.87;12.73;;;15.80;1.00;;;;;;6280358;28;20228;-54
2022/09/25 08:54:53;;;;;;;15.17;13.57;;;16.00;1.00;;;;;;6286389;28;20241;-54
2022/09/25 08:57:58;;;;;;;14.10;12.77;;;16.00;1.00;;;;;;6297287;28;20270;-54
2022/09/25 09:01:05;;;;;;;13.13;11.83;;;16.00;1.00;;;;;;6284517;28;20724;-53
2022/09/25 09:04:17;;;;;;;13.70;12.60;;;16.20;1.00;;;;;;6282880;28;20413;-55
2022/09/25 09:07:26;;;;;;;13.10;12.00;;;16.20;1.00;;;;;;6286402;28;20244;-55
2022/09/25 09:10:35;;;;;;;13.23;12.20;;;16.30;1.00;;;;;;6282725;28;20534;-53
2022/09/25 09:13:45;;;;;;;13.80;12.37;;;16.40;1.00;;;;;;6283322;28;20237;-53
2022/09/25 09:16:54;;;;;;;12.80;11.90;;;16.50;1.00;;;;;;6280981;28;20603;-54
2022/09/25 09:20:02;;;;;;;19.50;13.23;;;16.50;1.00;;;;;;6293692;28;20814;-54
2022/09/25 09:23:07;;;;;;;13.37;12.13;;;16.50;1.00;;;;;;6294724;28;20232;-54
2022/09/25 09:26:21;;;;;;;13.87;12.57;;;16.50;1.00;;;;;;6284553;28;20233;-54
2022/09/25 09:29:53;;;;;;;14.63;13.40;;;16.60;1.00;;;;;;6278565;28;20633;-54
2022/09/25 09:33:28;;;;;;;13.37;12.37;;;16.50;1.00;;;;;;6282723;28;20619;-54
2022/09/25 09:36:46;;;;;;;14.87;13.67;;;16.50;1.00;;;;;;6278857;28;20226;-54
2022/09/25 09:39:59;;;;;;;15.37;13.80;;;16.40;1.00;;;;;;6286589;28;20239;-54
2022/09/25 09:43:11;;;;;;;15.27;13.77;;;16.30;1.00;;;;;;6288420;28;20793;-54
2022/09/25 09:46:24;;;;;;;15.90;14.70;;;16.40;1.00;;;;;;6285655;28;20716;-55
2022/09/25 09:49:34;;;;;;;12.73;11.73;;;16.40;1.00;;;;;;6287638;28;20236;-54
2022/09/25 09:52:39;;;;;;;15.13;13.60;;;16.40;1.00;;;;;;6274673;28;20247;-53
2022/09/25 09:55:45;;;;;;;14.87;13.67;;;16.60;1.00;;;;;;6279168;28;20604;-54
2022/09/25 09:58:51;;;;;;;15.17;13.90;;;16.70;1.00;;;;;;6285082;28;20233;-54
2022/09/25 10:02:01;;;;;;;14.00;12.70;;;16.80;1.00;;;;;;6280704;28;20237;-54
2022/09/25 10:05:08;;;;;;;14.40;13.17;;;17.00;1.00;;;;;;6280839;28;20279;-55
2022/09/25 10:08:11;;;;;;;13.90;12.80;;;17.00;1.00;;;;;;6291212;28;20331;-55
2022/09/25 10:11:17;;;;;;;13.40;12.40;;;17.10;1.00;;;;;;6288061;28;20237;-54
2022/09/25 10:14:22;;;;;;;14.93;13.73;;;17.20;1.00;;;;;;6289328;28;20236;-54
2022/09/25 10:17:29;;;;;;;13.97;12.87;;;17.30;1.00;;;;;;6290049;28;20244;-55
2022/09/25 10:20:40;;;;;;;14.37;13.07;;;17.30;1.00;;;;;;6296730;28;20705;-54
2022/09/25 10:23:49;;;;;;;13.90;12.60;;;17.30;1.00;;;;;;6299701;28;20392;-54
2022/09/25 10:26:52;;;;;;;14.00;12.77;;;17.50;1.00;;;;;;6295172;28;20693;-54
2022/09/25 10:30:19;;;;;;;13.53;12.43;;;17.60;1.00;;;;;;6285332;28;20226;-54
2022/09/25 10:33:25;;;;;;;11.47;10.67;;;17.90;1.00;;;;;;6290072;28;20614;-54
2022/09/25 10:36:34;;;;;;;13.40;12.17;;;18.20;1.00;;;;;;6270272;28;20227;-55
2022/09/25 10:39:38;;;;;;;12.20;11.13;;;18.40;1.00;;;;;;6287126;28;20229;-55
2022/09/25 10:42:47;;;;;;;14.87;13.67;;;18.60;1.00;;;;;;6292625;28;20259;-54
2022/09/25 10:45:52;;;;;;;12.80;11.70;;;18.60;1.00;;;;;;6286661;28;20331;-55
2022/09/25 10:52:48;;;;;;;12.17;11.10;;;18.90;1.00;;;;;;6281137;28;20232;-54
2022/09/25 10:55:53;;;;;;;13.13;12.07;;;19.10;1.00;;;;;;6279184;28;20553;-55
2022/09/25 10:59:00;;;;;;;13.17;12.17;;;19.30;1.00;;;;;;6304376;28;20239;-54
2022/09/25 11:02:13;;;;;;;13.40;12.27;;;19.30;1.00;;;;;;6296289;28;20236;-56
2022/09/25 11:05:20;;;;;;;12.77;11.87;;;19.40;1.00;;;;;;6300347;28;20228;-54
2022/09/25 11:08:27;;;;;;;12.53;11.57;;;19.60;1.00;;;;;;6291103;28;20768;-55
2022/09/25 11:11:31;;;;;;;13.40;12.40;;;19.50;1.00;;;;;;6284914;28;20229;-55
2022/09/25 11:14:36;;;;;;;12.90;12.00;;;19.60;1.00;;;;;;6289782;28;20237;-54
2022/09/25 11:17:40;;;;;;;11.80;10.83;;;19.70;1.00;;;;;;6289280;28;21128;-54
2022/09/25 11:21:01;;;;;;;12.53;11.53;;;19.60;1.00;;;;;;6282524;28;20237;-55
2022/09/25 11:24:13;;;;;;;11.07;10.07;;;19.70;1.00;;;;;;6279184;28;20242;-54
2022/09/25 11:27:20;;;;;;;12.27;11.30;;;19.70;1.00;;;;;;6276842;28;20598;-53
2022/09/25 11:30:24;;;;;;;12.03;11.17;;;19.50;1.00;;;;;;6285908;28;20262;-55
2022/09/25 11:33:41;;;;;;;11.87;10.97;;;19.40;1.00;;;;;;6286083;28;20228;-54
2022/09/25 11:36:47;;;;;;;12.27;11.37;;;19.50;1.00;;;;;;6289013;28;21018;-54
2022/09/25 11:43:25;;;;;;;11.90;11.03;;;19.50;1.00;;;;;;6271635;28;20700;-56
2022/09/25 11:46:38;;;;;;;12.47;11.47;;;19.50;1.00;;;;;;6285289;28;20643;-55
2022/09/25 11:49:42;;;;;;;11.63;10.90;;;19.30;1.00;;;;;;6287280;28;20230;-53
2022/09/25 11:52:58;;;;;;;10.90;10.07;;;19.20;1.00;;;;;;6276734;28;20229;-55
2022/09/25 11:56:12;;;;;;;10.50;9.50;;;19.20;1.00;;;;;;6283832;28;20721;-54
2022/09/25 11:59:27;;;;;;;10.57;9.73;;;19.20;1.00;;;;;;6288574;28;20355;-55
2022/09/25 12:02:49;;;;;;;11.77;10.87;;;19.20;1.00;;;;;;6275896;28;20237;-54
2022/09/25 12:06:10;;;;;;;10.87;10.07;;;19.10;1.00;;;;;;6290717;28;20245;-55
2022/09/25 12:09:30;;;;;;;11.30;10.50;;;19.10;1.00;;;;;;6284837;28;20392;-54
2022/09/25 12:12:40;;;;;;;12.03;11.03;;;19.30;1.00;;;;;;6277661;28;20229;-53
2022/09/25 12:15:56;;;;;;;11.23;10.53;;;19.20;1.00;;;;;;6284805;28;20233;-53
2022/09/25 12:19:09;;;;;;;9.80;9.10;;;19.20;1.00;;;;;;6287774;28;20733;-56
2022/09/25 12:22:22;;;;;;;10.77;9.97;;;19.30;1.00;;;;;;6289698;28;20249;-55
2022/09/25 12:25:40;;;;;;;9.53;8.93;;;19.30;1.00;;;;;;6281210;28;20226;-55
2022/09/25 12:29:04;;;;;;;9.43;8.53;;;19.50;1.00;;;;;;6272327;28;20225;-59
2022/09/25 12:32:19;;;;;;;9.43;8.73;;;19.70;1.00;;;;;;6299432;28;20452;-54
2022/09/25 12:35:35;;;;;;;8.60;8.00;;;19.70;1.00;;;;;;6290119;28;20240;-55
2022/09/25 12:38:44;;;;;;;9.40;8.70;;;19.80;1.00;;;;;;6298182;28;20218;-55
2022/09/25 12:41:53;;;;;;;9.17;8.57;;;19.70;1.00;;;;;;6286413;28;20240;-56
2022/09/25 12:45:00;;;;;;;8.10;7.43;;;19.70;1.00;;;;;;6278274;28;20248;-54
2022/09/25 12:48:11;;;;;;;8.60;8.00;;;19.90;1.00;;;;;;6279208;28;20451;-55
2022/09/25 12:51:20;;;;;;;8.53;7.97;;;19.90;1.00;;;;;;6282412;28;20608;-54
2022/09/25 12:54:31;;;;;;;9.33;8.73;;;20.00;1.00;;;;;;6288384;28;20248;-56
2022/09/25 12:57:41;;;;;;;9.13;8.43;;;20.00;1.00;;;;;;6283531;28;20236;-54
2022/09/25 13:00:47;;;;;;;8.00;7.40;;;20.00;1.00;;;;;;6287413;28;20249;-55
2022/09/25 13:04:04;;;;;;;7.07;6.70;;;19.90;1.00;;;;;;6281280;28;20424;-56
2022/09/25 13:07:15;;;;;;;7.17;6.77;;;19.90;1.00;;;;;;6286760;28;20603;-55
2022/09/25 13:10:27;;;;;;;7.27;6.80;;;19.90;1.00;;;;;;6274612;28;20233;-55
2022/09/25 13:13:37;;;;;;;8.07;7.37;;;19.60;1.00;;;;;;6270532;28;20712;-55
2022/09/25 13:16:40;;;;;;;8.13;7.63;;;19.40;1.00;;;;;;6282774;28;20233;-55
2022/09/25 13:19:43;;;;;;;7.60;7.20;;;19.30;1.00;;;;;;6290555;28;20228;-55
2022/09/25 13:22:46;;;;;;;8.23;7.53;;;19.10;1.00;;;;;;6285566;28;20233;-55
2022/09/25 13:25:58;;;;;;;8.40;7.70;;;19.10;1.00;;;;;;6281328;28;20237;-54
2022/09/25 13:29:07;;;;;;;6.73;6.40;;;19.00;1.00;;;;;;6278123;28;20755;-55
2022/09/25 13:32:16;;;;;;;7.53;7.13;;;19.10;1.00;;;;;;6281726;28;20233;-56
2022/09/25 13:35:21;;;;;;;8.87;8.27;;;19.10;1.00;;;;;;6283566;28;20244;-54
2022/09/25 13:41:54;;;;;;;7.10;6.70;;;19.20;1.00;;;;;;6281951;28;20257;-56
2022/09/25 13:45:06;;;;;;;7.67;7.27;;;19.30;1.00;;;;;;6283128;28;20850;-55
2022/09/25 13:48:11;;;;;;;7.13;6.73;;;19.40;1.00;;;;;;6287097;28;20957;-56
2022/09/25 13:51:34;;;;;;;6.90;6.60;;;19.50;1.00;;;;;;6286868;28;20237;-54
2022/09/25 13:54:37;;;;;;;7.63;7.23;;;19.60;1.00;;;;;;6284519;28;20229;-54
2022/09/25 13:58:01;;;;;;;7.93;7.43;;;19.60;1.00;;;;;;6294548;28;20225;-55
2022/09/25 14:01:18;;;;;;;7.27;6.87;;;19.50;1.00;;;;;;6284900;28;20701;-54
2022/09/25 14:04:37;;;;;;;8.47;7.67;;;19.60;1.00;;;;;;6284827;28;20339;-56
2022/09/25 14:07:41;;;;;;;8.10;7.70;;;19.70;1.00;;;;;;6288145;28;20226;-55
2022/09/25 14:10:47;;;;;;;7.63;7.13;;;19.70;1.00;;;;;;6291822;28;20233;-61
2022/09/25 14:13:55;;;;;;;9.33;8.43;;;19.70;1.00;;;;;;6288853;28;20229;-56
2022/09/25 14:17:00;;;;;;;9.03;8.30;;;19.70;1.00;;;;;;6288404;28;20229;-56
2022/09/25 14:20:09;;;;;;;7.93;7.47;;;19.60;1.00;;;;;;6294204;28;20236;-55
2022/09/25 14:23:16;;;;;;;8.50;7.90;;;19.50;1.00;;;;;;6289718;28;20240;-55
2022/09/25 14:26:21;;;;;;;8.00;7.60;;;19.40;1.00;;;;;;6293913;28;20230;-55
2022/09/25 14:29:26;;;;;;;9.00;8.20;;;19.40;1.00;;;;;;6270007;28;20642;-55
2022/09/25 14:32:41;;;;;;;8.77;8.00;;;19.30;1.00;;;;;;6256984;28;20235;-54
2022/09/25 14:36:09;;;;;;;8.63;8.13;;;19.20;1.00;;;;;;6282074;28;20275;-55
2022/09/25 14:39:29;;;;;;;8.93;8.43;;;19.20;1.00;;;;;;6284771;28;20357;-55
2022/09/25 14:42:58;;;;;;;8.70;8.20;;;19.10;1.00;;;;;;6285950;28;20725;-54
2022/09/25 14:46:03;;;;;;;9.00;8.37;;;19.10;1.00;;;;;;6286920;28;20225;-55
2022/09/25 14:49:26;;;;;;;8.10;7.70;;;19.10;1.00;;;;;;6290693;28;20225;-55
2022/09/25 14:52:35;;;;;;;10.67;9.70;;;19.10;1.00;;;;;;6278214;28;20237;-55
2022/09/25 14:55:45;;;;;;;10.73;9.80;;;19.10;1.00;;;;;;6291175;28;20246;-55
2022/09/25 14:58:51;;;;;;;9.23;8.70;;;19.10;1.00;;;;;;6286373;28;20232;-55
2022/09/25 15:01:54;;;;;;;11.17;10.27;;;19.10;1.00;;;;;;6282458;28;20518;-55
2022/09/25 15:05:00;;;;;;;9.57;8.97;;;19.00;1.00;;;;;;6283819;28;20225;-55
2022/09/25 15:08:20;;;;;;;9.50;8.90;;;19.00;1.00;;;;;;6288286;28;20239;-55
2022/09/25 15:11:28;;;;;;;10.23;9.53;;;18.90;1.00;;;;;;6281155;28;20465;-54
2022/09/25 15:14:31;;;;;;;10.50;9.80;;;18.90;1.00;;;;;;6290681;28;20231;-54
2022/09/25 15:17:42;;;;;;;10.07;9.27;;;18.80;1.00;;;;;;6291199;28;20241;-54
2022/09/25 15:20:48;;;;;;;9.80;9.17;;;18.70;1.00;;;;;;6297868;28;20233;-53
2022/09/25 15:23:52;;;;;;;9.10;8.50;;;18.70;1.00;;;;;;6290180;28;20245;-55
2022/09/25 15:27:02;;;;;;;9.47;8.87;;;18.60;1.00;;;;;;6283618;28;20238;-55
2022/09/25 15:30:06;;;;;;;9.63;8.93;;;18.60;1.00;;;;;;6280690;28;20270;-55
2022/09/25 15:33:21;;;;;;;8.53;7.93;;;18.60;1.00;;;;;;6284794;28;20260;-54
2022/09/25 15:36:25;;;;;;;9.83;9.13;;;18.60;1.00;;;;;;6275049;28;20848;-54
2022/09/25 15:39:28;;;;;;;9.63;8.93;;;18.50;1.00;;;;;;6282992;28;20471;-54
2022/09/25 15:42:31;;;;;;;9.97;9.37;;;18.40;1.00;;;;;;6280491;28;20237;-54
2022/09/25 15:45:40;;;;;;;10.20;9.50;;;18.40;1.00;;;;;;6285105;28;20249;-55
2022/09/25 15:48:52;;;;;;;9.60;8.90;;;18.30;1.00;;;;;;6283010;28;20337;-55
2022/09/25 15:51:59;;;;;;;8.17;7.67;;;18.20;1.00;;;;;;6278714;28;20233;-54
2022/09/25 15:55:06;;;;;;;8.80;8.20;;;18.10;1.00;;;;;;6287540;28;20279;-55
2022/09/25 15:58:14;;;;;;;8.90;8.20;;;18.10;1.00;;;;;;6272036;28;20604;-53
2022/09/25 16:04:48;;;;;;;10.40;9.60;;;18.00;1.00;;;;;;6270255;28;20228;-54
2022/09/25 16:07:54;;;;;;;10.07;9.37;;;17.90;1.00;;;;;;6278240;28;20240;-54
2022/09/25 16:11:13;;;;;;;9.60;9.00;;;17.80;1.00;;;;;;6281314;28;20741;-55
2022/09/25 16:14:28;;;;;;;10.00;9.20;;;17.70;1.00;;;;;;6281241;28;20264;-54
2022/09/25 16:17:33;;;;;;;10.23;9.33;;;17.60;1.00;;;;;;6283300;28;20241;-55
2022/09/25 16:20:38;;;;;;;9.90;9.30;;;17.60;1.00;;;;;;6284658;28;20240;-55
2022/09/25 16:23:42;;;;;;;8.90;8.40;;;17.50;1.00;;;;;;6284550;28;20231;-54
2022/09/25 16:26:47;;;;;;;8.80;7.93;;;17.50;1.00;;;;;;6286577;28;20222;-55
2022/09/25 16:29:50;;;;;;;9.63;8.83;;;17.40;1.00;;;;;;6285155;28;20598;-55
2022/09/25 16:32:55;;;;;;;8.20;7.60;;;17.30;1.00;;;;;;6289233;28;20225;-54
2022/09/25 16:36:00;;;;;;;8.83;8.10;;;17.20;1.00;;;;;;6283804;28;20234;-55
2022/09/25 16:39:27;;;;;;;9.10;8.53;;;17.00;1.00;;;;;;6287664;28;20224;-54
2022/09/25 16:42:34;;;;;;;8.30;7.70;;;17.00;1.00;;;;;;6273758;28;20225;-53
2022/09/25 16:45:56;;;;;;;8.10;7.50;;;16.80;1.00;;;;;;6292894;28;20228;-55
2022/09/25 16:49:01;;;;;;;8.73;8.10;;;16.80;1.00;;;;;;6261648;28;20376;-53